Time;durP1;ratioP1;P1;durP2;ratioP2;P2;SDS_P1;SDS_P2;PMS_P1;PMS_P2;Temp;Humidity;BMP_temperature;BMP_pressure;BME280_temperature;BME280_humidity;BME280_pressure;Samples;Min_cycle;Max_cycle;Signal;HPM_P1;HPM_P2
2024/03/11 00:01:44;;;;;;;29.60;26.30;;;;;;;10.85;97.36;99670.28;5294043;28;20027;-83
2024/03/11 00:04:16;;;;;;;30.40;27.17;;;;;;;10.88;97.13;99683.91;5303778;28;20035;-82
2024/03/11 00:06:48;;;;;;;30.38;27.02;;;;;;;10.85;98.12;99681.59;5304081;28;20213;-82
2024/03/11 00:09:28;;;;;;;30.27;26.60;;;;;;;10.88;97.31;99683.06;5305436;28;20039;-82
2024/03/11 00:12:00;;;;;;;30.08;26.88;;;;;;;10.82;97.72;99684.53;5307541;28;20289;-82
2024/03/11 00:14:33;;;;;;;28.92;25.77;;;;;;;10.78;97.80;99679.75;5305128;28;20027;-82
2024/03/11 00:17:06;;;;;;;30.73;27.40;;;;;;;10.75;98.54;99678.28;5307286;28;20016;-83
2024/03/11 00:19:37;;;;;;;29.65;26.52;;;;;;;10.77;96.64;99670.28;5307817;28;20313;-82
2024/03/11 00:22:09;;;;;;;30.85;27.27;;;;;;;10.79;96.88;99684.84;5295205;28;20028;-82
2024/03/11 00:24:41;;;;;;;31.15;27.77;;;;;;;10.78;97.36;99687.63;5286027;28;20127;-82
2024/03/11 00:27:13;;;;;;;32.88;28.88;;;;;;;10.76;97.22;99685.19;5289414;28;20081;-81
2024/03/11 00:29:45;;;;;;;31.75;28.40;;;;;;;10.68;98.50;99693.00;5289041;28;20404;-81
2024/03/11 00:32:47;;;;;;;32.72;28.92;;;;;;;10.88;98.20;99686.50;5288940;28;20024;-81
2024/03/11 00:35:19;;;;;;;32.47;29.08;;;;;;;10.70;98.42;99691.03;5287561;28;20521;-81
2024/03/11 00:37:51;;;;;;;31.95;28.52;;;;;;;10.77;99.16;99689.44;5294561;28;20120;-82
2024/03/11 00:40:26;;;;;;;33.80;28.63;;;;;;;10.69;98.48;99681.56;5306611;28;20030;-83
2024/03/11 00:43:05;;;;;;;33.17;29.65;;;;;;;10.70;99.26;99693.66;5301235;28;20042;-82
2024/03/11 00:46:12;;;;;;;31.65;28.15;;;;;;;10.69;98.50;99676.31;5252395;28;20039;-82
2024/03/11 00:48:54;;;;;;;33.78;28.02;;;;;;;10.72;97.61;99686.47;5289622;28;20039;-81
2024/03/11 00:51:26;;;;;;;31.50;27.70;;;;;;;10.73;98.73;99687.28;5308241;28;20028;-82
2024/03/11 00:55:02;;;;;;;33.78;28.92;;;;;;;11.05;97.50;99684.72;5293487;28;20031;-81
2024/03/11 00:58:13;;;;;;;33.25;29.60;;;;;;;10.82;97.72;99655.69;5257892;28;20048;-82
2024/03/11 01:01:34;;;;;;;33.38;29.48;;;;;;;11.06;98.25;99689.00;5289013;28;20040;-81
2024/03/11 01:05:06;;;;;;;31.80;28.43;;;;;;;11.10;98.01;99690.31;5285909;28;20044;-81
2024/03/11 01:08:13;;;;;;;32.80;29.10;;;;;;;10.63;99.65;99656.81;5289522;28;20336;-81
2024/03/11 01:11:56;;;;;;;36.28;30.75;;;;;;;11.10;97.67;99681.63;5275458;28;20052;-82
2024/03/11 01:15:07;;;;;;;31.98;28.58;;;;;;;11.09;98.21;99693.09;5266684;28;20052;-82
2024/03/11 01:18:23;;;;;;;32.25;27.90;;;;;;;10.94;99.68;99687.66;5238587;28;20041;-81
2024/03/11 01:21:20;;;;;;;31.45;27.77;;;;;;;10.98;98.64;99694.22;5257838;28;20045;-81
2024/03/11 01:24:10;;;;;;;36.35;29.05;;;;;;;10.71;99.89;99695.28;5275034;28;20422;-82
2024/03/11 01:26:47;;;;;;;33.17;28.15;;;;;;;10.62;100.00;99691.03;5290843;28;20028;-82
2024/03/11 01:29:21;;;;;;;34.53;29.10;;;;;;;10.59;100.00;99688.72;5295114;28;20042;-82
2024/03/11 01:31:53;;;;;;;31.85;28.17;;;;;;;10.60;100.00;99692.97;5285570;28;20054;-82
2024/03/11 01:34:53;;;;;;;34.30;30.08;;;;;;;10.87;100.00;99697.97;5284686;28;20050;-81
2024/03/11 01:41:45;;;;;;;33.22;27.85;;;;;;;10.71;100.00;99693.50;5284585;28;20040;-81
2024/03/11 01:44:36;;;;;;;33.13;29.02;;;;;;;10.65;100.00;99701.19;5281995;28;20037;-82
2024/03/11 01:47:09;;;;;;;32.75;28.85;;;;;;;10.58;100.00;99701.00;5297262;28;20028;-82
2024/03/11 01:49:52;;;;;;;34.25;29.05;;;;;;;10.76;100.00;99703.50;5292784;28;20031;-82
2024/03/11 01:52:33;;;;;;;32.45;28.92;;;;;;;10.69;100.00;99705.13;5293974;28;20048;-82
2024/03/11 01:55:05;;;;;;;33.35;29.58;;;;;;;10.59;100.00;99699.19;5274397;28;20419;-82
2024/03/11 01:57:39;;;;;;;35.13;31.20;;;;;;;10.52;100.00;99693.75;5282283;28;20036;-81
2024/03/11 02:00:11;;;;;;;33.33;29.05;;;;;;;10.52;100.00;99696.38;5273679;28;20024;-81
2024/03/11 02:02:43;;;;;;;34.25;30.40;;;;;;;10.47;100.00;99689.00;5287051;28;20062;-82
2024/03/11 02:05:15;;;;;;;35.65;30.98;;;;;;;10.45;100.00;99692.75;5296656;28;20024;-82
2024/03/11 02:07:52;;;;;;;35.55;30.50;;;;;;;10.58;100.00;99701.00;5294930;28;20068;-82
2024/03/11 02:10:24;;;;;;;36.08;31.02;;;;;;;10.44;100.00;99694.53;5298285;28;20032;-82
2024/03/11 02:12:58;;;;;;;35.63;30.58;;;;;;;10.46;100.00;99697.84;5298467;28;20040;-82
2024/03/11 02:16:06;;;;;;;37.13;31.95;;;;;;;10.75;100.00;99691.38;5292700;28;20323;-81
2024/03/11 02:18:39;;;;;;;35.10;31.23;;;;;;;10.40;100.00;99681.94;5234155;28;20415;-81
2024/03/11 02:21:11;;;;;;;;;;;;;;;11.20;100.00;99698.03;5273327;28;20406;-82
2024/03/11 02:23:43;;;;;;;33.83;29.45;;;;;;;10.53;100.00;99702.44;5266716;28;19913;-82
2024/03/11 02:26:18;;;;;;;35.27;30.70;;;;;;;10.43;100.00;99687.69;5272916;28;20027;-82
2024/03/11 02:28:49;;;;;;;35.47;31.55;;;;;;;10.46;100.00;99695.22;5277467;28;20035;-82
2024/03/11 02:31:23;;;;;;;35.58;31.50;;;;;;;10.46;100.00;99703.06;5277169;28;20441;-82
2024/03/11 02:33:55;;;;;;;;;;;;;;;11.16;100.00;99700.16;5278134;28;20039;-82
2024/03/11 02:36:27;;;;;;;34.83;31.13;;;;;;;10.49;100.00;99701.91;5285514;28;19927;-82
2024/03/11 02:38:59;;;;;;;36.05;31.83;;;;;;;10.37;100.00;99690.09;5276578;28;20386;-83
2024/03/11 02:41:32;;;;;;;36.17;30.90;;;;;;;10.36;100.00;99685.84;5282141;28;20097;-82
2024/03/11 02:44:04;;;;;;;;;;;;;;;11.14;100.00;99702.13;5283145;28;20025;-83
2024/03/11 02:46:37;;;;;;;35.20;31.38;;;;;;;10.44;100.00;99691.94;5282056;28;19982;-83
2024/03/11 02:49:09;;;;;;;36.45;31.55;;;;;;;10.43;100.00;99700.75;5277793;28;20032;-83
2024/03/11 02:51:42;;;;;;;36.03;30.63;;;;;;;10.52;100.00;99692.94;5286084;28;20390;-83
2024/03/11 02:54:15;;;;;;;38.03;31.92;;;;;;;10.44;100.00;99699.78;5279944;28;20024;-82
2024/03/11 02:56:47;;;;;;;34.30;30.23;;;;;;;10.42;100.00;99691.28;5276488;28;20033;-82
2024/03/11 02:59:19;;;;;;;34.17;30.08;;;;;;;10.50;100.00;99700.16;5293379;28;20024;-83
2024/03/11 03:01:51;;;;;;;37.90;32.53;;;;;;;10.40;100.00;99687.16;5283312;28;20042;-83
2024/03/11 03:04:23;;;;;;;35.00;30.17;;;;;;;10.44;100.00;99696.34;5288857;28;20024;-83
2024/03/11 03:06:57;;;;;;;36.28;31.83;;;;;;;10.40;100.00;99695.84;5270739;28;20433;-83
2024/03/11 03:09:29;;;;;;;35.05;31.25;;;;;;;10.40;100.00;99711.53;5273164;28;20025;-83
2024/03/11 03:12:02;;;;;;;39.78;33.58;;;;;;;10.39;100.00;99702.06;5283683;28;20469;-83
2024/03/11 03:14:38;;;;;;;;;;;;;;;11.16;100.00;99709.81;5292527;28;20047;-83
2024/03/11 03:17:15;;;;;;;34.13;30.42;;;;;;;10.50;100.00;99705.38;5292550;28;19919;-83
2024/03/11 03:19:48;;;;;;;34.72;30.98;;;;;;;10.44;100.00;99704.19;5273661;28;20079;-83
2024/03/11 03:22:19;;;;;;;35.35;30.67;;;;;;;10.46;100.00;99720.59;5290103;28;20813;-82
2024/03/11 03:24:51;;;;;;;34.03;30.30;;;;;;;10.47;100.00;99722.22;5276067;28;20048;-83
2024/03/11 03:27:25;;;;;;;35.25;30.85;;;;;;;10.43;100.00;99721.72;5275419;28;20025;-83
2024/03/11 03:29:58;;;;;;;38.88;32.55;;;;;;;10.40;100.00;99718.59;5293054;28;20039;-82
2024/03/11 03:32:30;;;;;;;34.83;31.10;;;;;;;10.45;100.00;99732.03;5279338;28;20032;-82
2024/03/11 03:35:05;;;;;;;37.22;31.00;;;;;;;10.35;100.00;99724.28;5276626;28;20043;-82
2024/03/11 03:37:37;;;;;;;36.47;31.85;;;;;;;10.37;100.00;99729.38;5281763;28;20481;-83
2024/03/11 03:40:15;;;;;;;37.40;33.42;;;;;;;10.39;100.00;99736.09;5287079;28;20034;-83
2024/03/11 03:42:48;;;;;;;34.85;31.00;;;;;;;10.37;100.00;99727.56;5289900;28;20098;-83
2024/03/11 03:45:21;;;;;;;36.83;32.55;;;;;;;10.44;100.00;99719.91;5286035;28;20044;-83
2024/03/11 03:47:53;;;;;;;;;;;;;;;11.12;100.00;99732.91;5268553;28;20118;-83
2024/03/11 03:50:25;;;;;;;34.08;30.27;;;;;;;10.43;100.00;99726.94;5283873;28;19912;-83
2024/03/11 03:52:58;;;;;;;37.20;31.92;;;;;;;10.29;100.00;99716.25;5286629;28;20039;-83
2024/03/11 03:55:30;;;;;;;35.35;30.00;;;;;;;10.34;100.00;99721.81;5287110;28;20389;-83
2024/03/11 03:58:02;;;;;;;36.63;31.67;;;;;;;10.28;100.00;99733.75;5280703;28;20036;-82
2024/03/11 04:00:35;;;;;;;39.50;31.85;;;;;;;10.20;100.00;99718.78;5280510;28;20161;-83
2024/03/11 04:03:07;;;;;;;37.38;32.17;;;;;;;10.18;100.00;99719.91;5268297;28;20055;-83
2024/03/11 04:05:39;;;;;;;34.90;31.08;;;;;;;10.13;100.00;99711.72;5286610;28;20027;-83
2024/03/11 04:08:11;;;;;;;36.90;32.90;;;;;;;10.16;100.00;99720.06;5283269;28;20497;-82
2024/03/11 04:10:43;;;;;;;36.85;32.00;;;;;;;10.19;100.00;99724.16;5268649;28;20056;-82
2024/03/11 04:13:16;;;;;;;36.97;32.20;;;;;;;10.14;100.00;99735.09;5267586;28;20695;-83
2024/03/11 04:15:48;;;;;;;40.38;33.17;;;;;;;10.12;100.00;99728.41;5285183;28;20032;-83
2024/03/11 04:18:20;;;;;;;36.53;32.57;;;;;;;10.20;100.00;99718.78;5287089;28;20505;-82
2024/03/11 04:20:55;;;;;;;35.97;31.75;;;;;;;10.22;100.00;99726.47;5292092;28;20036;-82
2024/03/11 04:23:28;;;;;;;37.63;33.53;;;;;;;10.21;100.00;99719.59;5273732;28;20039;-82
2024/03/11 04:26:01;;;;;;;38.47;33.78;;;;;;;10.18;100.00;99701.59;5286819;28;20036;-82
2024/03/11 04:28:33;;;;;;;36.33;31.93;;;;;;;10.18;100.00;99704.19;5286393;28;20036;-82
2024/03/11 04:31:04;;;;;;;35.35;31.02;;;;;;;10.19;100.00;99718.91;5287159;28;20700;-82
2024/03/11 04:33:36;;;;;;;35.60;31.35;;;;;;;10.20;100.00;99724.03;5287143;28;20031;-82
2024/03/11 04:36:08;;;;;;;36.30;32.33;;;;;;;10.22;100.00;99726.47;5287942;28;20048;-83
2024/03/11 04:38:41;;;;;;;34.35;30.75;;;;;;;10.16;100.00;99716.63;5282947;28;20117;-82
2024/03/11 04:41:12;;;;;;;36.50;31.85;;;;;;;10.19;100.00;99718.91;5291640;28;20024;-82
2024/03/11 04:43:44;;;;;;;34.85;31.02;;;;;;;10.13;100.00;99717.75;5276502;28;20047;-82
2024/03/11 04:46:17;;;;;;;38.13;33.00;;;;;;;10.03;100.00;99703.94;5274147;28;20189;-82
2024/03/11 04:48:48;;;;;;;35.28;31.27;;;;;;;10.07;100.00;99717.53;5290803;28;20035;-82
2024/03/11 04:51:20;;;;;;;40.63;31.92;;;;;;;10.02;100.00;99710.16;5294010;28;20027;-82
2024/03/11 04:53:52;;;;;;;35.25;31.40;;;;;;;10.11;100.00;99724.94;5294042;28;20040;-83
2024/03/11 04:56:24;;;;;;;36.90;32.88;;;;;;;10.09;100.00;99731.31;5286230;28;20216;-82
2024/03/11 04:58:57;;;;;;;36.67;32.17;;;;;;;10.05;100.00;99725.56;5282607;28;20159;-82
2024/03/11 05:01:30;;;;;;;36.58;31.92;;;;;;;10.04;100.00;99717.84;5284994;28;20603;-82
2024/03/11 05:04:02;;;;;;;;;;;;;;;10.75;100.00;99732.47;5286771;28;20028;-82
2024/03/11 05:06:34;;;;;;;35.22;30.42;;;;;;;10.08;100.00;99729.69;5283858;28;19932;-83
2024/03/11 05:09:06;;;;;;;37.50;31.73;;;;;;;10.03;100.00;99735.34;5288772;28;20039;-83
2024/03/11 05:11:38;;;;;;;35.42;31.02;;;;;;;9.98;100.00;99725.34;5280405;28;20042;-83
2024/03/11 05:14:09;;;;;;;37.13;31.98;;;;;;;9.92;100.00;99731.19;5295429;28;20042;-82
2024/03/11 05:16:41;;;;;;;39.88;33.03;;;;;;;9.92;100.00;99738.22;5294224;28;20040;-82
2024/03/11 05:19:13;;;;;;;39.08;34.55;;;;;;;9.67;100.00;99700.63;5293293;28;20038;-82
2024/03/11 05:21:45;;;;;;;37.90;32.55;;;;;;;9.96;100.00;99747.41;5289726;28;20031;-83
2024/03/11 05:24:18;;;;;;;38.50;33.47;;;;;;;9.97;100.00;99754.31;5283778;28;20054;-83
2024/03/11 05:26:50;;;;;;;38.85;34.70;;;;;;;10.02;100.00;99752.03;5282592;28;20028;-83
2024/03/11 05:29:22;;;;;;;38.80;33.13;;;;;;;9.99;100.00;99757.56;5285569;28;20032;-83
2024/03/11 05:31:54;;;;;;;38.90;33.53;;;;;;;9.95;100.00;99757.06;5298637;28;20027;-83
2024/03/11 05:34:26;;;;;;;41.90;35.43;;;;;;;9.97;100.00;99764.75;5279638;28;20339;-83
2024/03/11 05:36:58;;;;;;;38.40;33.50;;;;;;;9.87;100.00;99748.31;5287456;28;20036;-83
2024/03/11 05:39:30;;;;;;;38.35;33.72;;;;;;;9.97;100.00;99773.44;5280096;28;20037;-83
2024/03/11 05:42:02;;;;;;;39.28;34.70;;;;;;;9.87;100.00;99757.00;5277660;28;20443;-83
2024/03/11 05:44:34;;;;;;;36.67;32.67;;;;;;;9.92;100.00;99762.59;5294445;28;21062;-83
2024/03/11 05:47:07;;;;;;;38.47;33.53;;;;;;;9.87;100.00;99775.31;5291615;28;20057;-83
2024/03/11 05:49:41;;;;;;;41.03;34.95;;;;;;;9.83;100.00;99768.75;5292532;28;20394;-83
2024/03/11 05:52:13;;;;;;;38.83;33.90;;;;;;;9.92;100.00;99782.69;5282225;28;20035;-83
2024/03/11 05:54:50;;;;;;;39.85;33.72;;;;;;;9.90;100.00;99789.88;5280111;28;20028;-83
2024/03/11 05:57:25;;;;;;;40.60;35.25;;;;;;;9.87;100.00;99784.97;5289828;28;20032;-84
2024/03/11 05:59:57;;;;;;;39.95;35.60;;;;;;;9.84;100.00;99788.69;5289958;28;20028;-82
2024/03/11 06:02:29;;;;;;;40.72;34.88;;;;;;;9.80;100.00;99779.50;5293529;28;20028;-81
2024/03/11 06:05:02;;;;;;;39.42;35.05;;;;;;;9.78;100.00;99785.88;5292174;28;20290;-84
2024/03/11 06:07:34;;;;;;;44.60;36.22;;;;;;;9.85;100.00;99786.88;5284778;28;20052;-85
2024/03/11 06:10:08;;;;;;;41.47;34.85;;;;;;;9.79;100.00;99796.16;5278399;28;20028;-84
2024/03/11 06:12:39;;;;;;;41.47;34.60;;;;;;;9.79;100.00;99788.31;5290457;28;20102;-83
2024/03/11 06:15:12;;;;;;;40.95;34.83;;;;;;;9.75;100.00;99787.81;5270805;28;20124;-85
2024/03/11 06:17:44;;;;;;;39.97;34.75;;;;;;;9.81;100.00;99796.00;5286627;28;20028;-84
2024/03/11 06:20:16;;;;;;;38.42;33.30;;;;;;;9.68;100.00;99802.44;5271982;28;20059;-83
2024/03/11 06:22:49;;;;;;;38.60;33.80;;;;;;;9.68;100.00;99801.63;5283773;28;20277;-85
2024/03/11 06:25:21;;;;;;;42.55;35.35;;;;;;;9.75;100.00;99800.88;5283020;28;20032;-82
2024/03/11 06:27:54;;;;;;;39.88;35.53;;;;;;;9.83;100.00;99826.28;5275213;28;20055;-83
2024/03/11 06:30:27;;;;;;;39.63;34.88;;;;;;;9.83;100.00;99820.25;5274529;28;20032;-83
2024/03/11 06:32:59;;;;;;;39.75;34.67;;;;;;;9.87;100.00;99826.81;5291769;28;20042;-83
2024/03/11 06:35:31;;;;;;;40.78;35.28;;;;;;;9.84;100.00;99825.31;5289552;28;20480;-83
2024/03/11 06:38:04;;;;;;;39.40;34.70;;;;;;;9.78;100.00;99828.53;5290147;28;20025;-83
2024/03/11 06:40:36;;;;;;;37.25;33.17;;;;;;;9.81;100.00;99832.63;5284753;28;20039;-83
2024/03/11 06:43:08;;;;;;;37.80;33.22;;;;;;;9.81;100.00;99843.09;5290308;28;20032;-83
2024/03/11 06:45:41;;;;;;;40.60;35.08;;;;;;;9.72;100.00;99844.81;5291690;28;20083;-83
2024/03/11 06:48:13;;;;;;;38.58;33.08;;;;;;;9.74;100.00;99845.50;5288966;28;20352;-83
2024/03/11 06:50:45;;;;;;;38.72;34.53;;;;;;;9.70;100.00;99852.00;5291400;28;20063;-83
2024/03/11 06:53:17;;;;;;;37.05;33.03;;;;;;;9.71;100.00;99853.66;5285730;28;20055;-83
2024/03/11 06:55:51;;;;;;;38.28;33.22;;;;;;;9.72;100.00;99839.59;5286844;28;20032;-83
2024/03/11 06:58:23;;;;;;;40.42;35.05;;;;;;;9.68;100.00;99846.91;5279987;28;20504;-83
2024/03/11 07:00:58;;;;;;;40.92;35.55;;;;;;;9.70;100.00;99854.63;5284395;28;20041;-83
2024/03/11 07:03:30;;;;;;;39.95;35.67;;;;;;;9.71;100.00;99858.88;5286812;28;20036;-83
2024/03/11 07:06:02;;;;;;;39.47;33.88;;;;;;;9.75;100.00;99860.22;5273368;28;20315;-83
2024/03/11 07:08:36;;;;;;;39.58;34.80;;;;;;;9.82;100.00;99845.56;5285004;28;20048;-83
2024/03/11 07:11:08;;;;;;;37.38;32.95;;;;;;;9.84;100.00;99861.94;5269535;28;20299;-83
2024/03/11 07:13:40;;;;;;;39.55;34.15;;;;;;;9.86;100.00;99860.00;5273410;28;20032;-83
2024/03/11 07:16:14;;;;;;;38.75;33.05;;;;;;;9.84;100.00;99867.16;5287693;28;20038;-83
2024/03/11 07:18:47;;;;;;;38.22;33.90;;;;;;;9.82;100.00;99861.28;5285291;28;20047;-83
2024/03/11 07:21:19;;;;;;;41.25;34.00;;;;;;;9.78;100.00;99851.25;5269700;28;20035;-83
2024/03/11 07:23:53;;;;;;;39.15;34.30;;;;;;;9.92;100.00;99858.56;5292349;28;20040;-83
2024/03/11 07:26:25;;;;;;;39.15;34.00;;;;;;;9.81;100.00;99840.47;5291273;28;20426;-83
2024/03/11 07:28:57;;;;;;;44.20;35.05;;;;;;;9.93;100.00;99857.63;5289408;28;20643;-83
2024/03/11 07:31:29;;;;;;;38.78;32.45;;;;;;;9.95;100.00;99863.50;5277924;28;20030;-83
2024/03/11 07:34:00;;;;;;;35.60;31.70;;;;;;;9.87;100.00;99837.28;5289720;28;20409;-83
2024/03/11 07:36:35;;;;;;;38.55;33.42;;;;;;;9.96;100.00;99866.00;5289193;28;20039;-83
2024/03/11 07:39:10;;;;;;;37.00;33.03;;;;;;;10.01;100.00;99877.81;5269002;28;20552;-83
2024/03/11 07:41:42;;;;;;;36.20;32.30;;;;;;;10.02;100.00;99880.25;5273284;28;20048;-83
2024/03/11 07:44:15;;;;;;;35.92;32.08;;;;;;;9.96;100.00;99881.69;5289966;28;20028;-83
2024/03/11 07:46:47;;;;;;;39.78;33.67;;;;;;;9.99;100.00;99875.31;5270904;28;20055;-83
2024/03/11 07:49:18;;;;;;;38.72;33.83;;;;;;;10.03;100.00;99881.88;5277518;28;20028;-82
2024/03/11 07:51:51;;;;;;;38.05;33.42;;;;;;;10.01;100.00;99877.81;5290798;28;20040;-82
2024/03/11 07:54:23;;;;;;;38.30;34.10;;;;;;;10.09;100.00;99880.47;5291085;28;20036;-83
2024/03/11 07:56:56;;;;;;;38.35;32.95;;;;;;;10.04;100.00;99880.09;5290463;28;20323;-83
2024/03/11 07:59:28;;;;;;;;;;;;;;;10.69;100.00;99875.41;5289786;28;20050;-83
2024/03/11 08:02:00;;;;;;;34.85;30.55;;;;;;;10.09;100.00;99881.31;5272099;28;19920;-83
2024/03/11 08:04:32;;;;;;;36.10;32.20;;;;;;;10.09;100.00;99897.00;5287609;28;20031;-83
2024/03/11 08:07:04;;;;;;;36.67;32.35;;;;;;;10.03;100.00;99894.16;5283452;28;20044;-83
2024/03/11 08:09:37;;;;;;;37.60;33.42;;;;;;;10.06;100.00;99899.91;5268467;28;20359;-83
2024/03/11 08:12:09;;;;;;;37.30;33.20;;;;;;;10.07;100.00;99896.31;5269554;28;20043;-83
2024/03/11 08:14:41;;;;;;;36.63;31.90;;;;;;;9.93;100.00;99868.91;5270051;28;20450;-83
2024/03/11 08:17:15;;;;;;;38.30;34.15;;;;;;;9.98;100.00;99895.44;5263883;28;20044;-83
2024/03/11 08:19:48;;;;;;;39.47;34.05;;;;;;;10.00;100.00;99900.53;5265410;28;20047;-83
2024/03/11 08:22:20;;;;;;;39.67;34.65;;;;;;;10.04;100.00;99899.25;5245894;28;20047;-82
2024/03/11 08:24:52;;;;;;;42.00;35.60;;;;;;;9.92;100.00;99889.97;5265859;28;20072;-83
2024/03/11 08:27:25;;;;;;;39.65;35.38;;;;;;;9.96;100.00;99897.38;5247148;28;20041;-83
2024/03/11 08:29:57;;;;;;;38.17;33.90;;;;;;;9.98;100.00;99902.47;5246673;28;20049;-83
2024/03/11 08:32:29;;;;;;;38.85;33.80;;;;;;;10.01;100.00;99903.97;5264559;28;20028;-83
2024/03/11 08:35:02;;;;;;;40.70;34.90;;;;;;;9.93;100.00;99897.69;5264714;28;20155;-83
2024/03/11 08:37:34;;;;;;;38.87;34.63;;;;;;;10.05;100.00;99902.69;5266983;28;20290;-82
2024/03/11 08:40:08;;;;;;;38.38;33.50;;;;;;;10.06;100.00;99905.16;5264193;28;20282;-82
2024/03/11 08:42:44;;;;;;;38.35;33.97;;;;;;;10.10;100.00;99910.91;5264432;28;20047;-83
2024/03/11 08:45:23;;;;;;;37.50;33.17;;;;;;;10.12;100.00;99915.03;5261975;28;20029;-82
2024/03/11 08:47:55;;;;;;;38.30;34.17;;;;;;;10.06;100.00;99917.41;5257998;28;20032;-82
2024/03/11 08:50:27;;;;;;;37.17;33.28;;;;;;;10.08;100.00;99915.47;5259474;28;20028;-82
2024/03/11 08:53:00;;;;;;;37.20;33.20;;;;;;;10.06;100.00;99914.78;5261087;28;20561;-82
2024/03/11 08:55:34;;;;;;;38.85;33.55;;;;;;;10.13;100.00;99921.09;5264539;28;20032;-82
2024/03/11 08:58:06;;;;;;;37.53;33.42;;;;;;;10.10;100.00;99921.38;5265768;28;20048;-82
2024/03/11 09:00:39;;;;;;;38.42;34.35;;;;;;;10.07;100.00;99908.59;5248283;28;20406;-82
2024/03/11 09:03:11;;;;;;;37.50;33.40;;;;;;;10.07;100.00;99903.34;5267564;28;20044;-82
2024/03/11 09:05:45;;;;;;;36.00;31.33;;;;;;;10.09;100.00;99910.09;5270119;28;20029;-82
2024/03/11 09:08:18;;;;;;;38.03;32.72;;;;;;;10.08;100.00;99911.06;5269458;28;20283;-82
2024/03/11 09:10:50;;;;;;;35.75;31.95;;;;;;;10.16;100.00;99918.16;5266938;28;20099;-82
2024/03/11 09:13:23;;;;;;;36.75;32.88;;;;;;;10.23;100.00;99925.28;5269928;28;20409;-82
2024/03/11 09:15:56;;;;;;;37.15;33.17;;;;;;;10.21;100.00;99926.38;5265854;28;20037;-81
2024/03/11 09:18:28;;;;;;;37.28;32.40;;;;;;;10.23;100.00;99924.44;5261828;28;20478;-82
2024/03/11 09:21:00;;;;;;;36.63;32.83;;;;;;;10.23;100.00;99920.03;5268280;28;20045;-82
2024/03/11 09:23:32;;;;;;;36.42;31.15;;;;;;;10.24;100.00;99926.09;5270474;28;20050;-83
2024/03/11 09:26:09;;;;;;;36.00;31.10;;;;;;;10.21;100.00;99929.81;5268857;28;20036;-82
2024/03/11 09:28:46;;;;;;;38.75;32.40;;;;;;;10.28;100.00;99935.31;5278126;28;20037;-83
2024/03/11 09:31:18;;;;;;;39.45;30.55;;;;;;;10.24;100.00;99939.19;5258922;28;20047;-83
2024/03/11 09:33:52;;;;;;;35.33;31.33;;;;;;;10.31;100.00;99942.06;5275657;28;20044;-82
2024/03/11 09:36:24;;;;;;;37.25;31.80;;;;;;;10.25;100.00;99943.47;5278252;28;20401;-83
2024/03/11 09:38:57;;;;;;;37.42;32.35;;;;;;;10.30;100.00;99948.25;5275401;28;20291;-83
2024/03/11 09:41:37;;;;;;;35.78;31.77;;;;;;;10.45;100.00;99947.59;5276166;28;20047;-83
2024/03/11 09:44:25;;;;;;;37.45;33.35;;;;;;;10.31;100.00;99935.03;5277703;28;20024;-83
2024/03/11 09:47:00;;;;;;;38.60;33.55;;;;;;;10.27;100.00;99949.38;5277832;28;20028;-82
2024/03/11 09:49:34;;;;;;;38.88;34.63;;;;;;;10.28;100.00;99948.41;5249865;28;20044;-83
2024/03/11 09:52:06;;;;;;;38.88;34.50;;;;;;;10.21;100.00;99957.78;5267104;28;20024;-82
2024/03/11 09:54:38;;;;;;;39.05;34.42;;;;;;;10.24;100.00;99960.94;5267794;28;20040;-82
2024/03/11 09:57:12;;;;;;;40.55;34.33;;;;;;;10.28;100.00;99964.13;5269794;28;20036;-83
2024/03/11 09:59:49;;;;;;;43.00;34.72;;;;;;;10.31;100.00;99976.09;5269191;28;20029;-82
2024/03/11 10:02:26;;;;;;;41.75;35.55;;;;;;;10.27;100.00;99970.34;5269412;28;20048;-83
2024/03/11 10:04:58;;;;;;;39.05;33.83;;;;;;;10.31;100.00;99973.47;5268577;28;20043;-82
2024/03/11 10:07:30;;;;;;;39.42;35.17;;;;;;;10.31;100.00;99971.69;5278112;28;20044;-82
2024/03/11 10:10:12;;;;;;;38.85;34.20;;;;;;;10.45;100.00;99980.78;5289089;28;20505;-83
2024/03/11 10:12:53;;;;;;;38.55;34.33;;;;;;;10.41;100.00;99968.97;5287536;28;20020;-82
2024/03/11 10:15:27;;;;;;;41.60;36.05;;;;;;;10.28;100.00;99974.59;5287034;28;20493;-82
2024/03/11 10:18:08;;;;;;;37.67;33.58;;;;;;;10.55;100.00;99988.56;5287505;28;20032;-82
2024/03/11 10:20:56;;;;;;;37.97;33.92;;;;;;;10.67;100.00;99992.59;5288789;28;20036;-82
2024/03/11 10:23:29;;;;;;;38.80;34.60;;;;;;;10.50;100.00;99985.59;5268464;28;20046;-83
2024/03/11 10:26:41;;;;;;;40.28;34.70;;;;;;;10.62;100.00;99987.81;5289339;28;20028;-82
2024/03/11 10:29:06;;;;;;;39.33;34.78;;;;;;;10.56;100.00;99995.44;5285782;28;20024;-82
2024/03/11 10:31:42;;;;;;;39.70;35.40;;;;;;;10.47;100.00;99984.09;5286924;28;20043;-82
2024/03/11 10:34:21;;;;;;;38.45;34.25;;;;;;;10.54;100.00;100002.66;5285382;28;20025;-82
2024/03/11 10:36:56;;;;;;;37.50;33.50;;;;;;;10.61;100.00;100008.94;5287140;28;20040;-82
2024/03/11 10:39:40;;;;;;;38.25;34.08;;;;;;;10.68;100.00;100002.09;5289548;28;20055;-82
2024/03/11 10:42:28;;;;;;;39.42;35.13;;;;;;;10.80;100.00;100005.31;5289507;28;20043;-82
2024/03/11 10:45:05;;;;;;;41.17;35.38;;;;;;;10.52;100.00;99999.34;5287335;28;20032;-82
2024/03/11 10:47:39;;;;;;;40.50;36.05;;;;;;;10.49;100.00;100008.31;5289006;28;20042;-82
2024/03/11 10:50:14;;;;;;;42.92;38.22;;;;;;;10.45;100.00;100014.81;5269601;28;20059;-83
2024/03/11 10:52:48;;;;;;;42.38;37.75;;;;;;;10.46;100.00;100019.09;5289115;28;20036;-82
2024/03/11 10:55:22;;;;;;;43.83;38.35;;;;;;;10.50;100.00;100024.88;5287696;28;20028;-83
2024/03/11 10:57:55;;;;;;;;;;;;;;;11.19;100.00;100018.84;5288967;28;20027;-82
2024/03/11 11:00:34;;;;;;;44.13;38.33;;;;;;;10.60;100.00;100015.94;5288474;28;19923;-83
2024/03/11 11:03:12;;;;;;;44.22;38.42;;;;;;;10.62;100.00;100021.03;5284451;28;20409;-83
2024/03/11 11:05:52;;;;;;;41.47;36.88;;;;;;;10.56;100.00;100016.41;5269477;28;20048;-82
2024/03/11 11:08:29;;;;;;;40.67;36.17;;;;;;;10.50;100.00;100019.63;5288250;28;20055;-82
2024/03/11 11:11:02;;;;;;;40.65;36.30;;;;;;;10.48;100.00;100030.25;5288065;28;20046;-82
2024/03/11 11:13:40;;;;;;;41.10;36.58;;;;;;;10.52;100.00;100031.59;5288814;28;20036;-82
2024/03/11 11:16:13;;;;;;;41.95;37.38;;;;;;;10.45;100.00;100015.66;5288131;28;20039;-82
2024/03/11 11:18:46;;;;;;;39.72;35.40;;;;;;;10.51;100.00;100024.72;5286612;28;20032;-82
2024/03/11 11:21:23;;;;;;;40.92;35.63;;;;;;;10.53;100.00;100021.94;5285260;28;20032;-82
2024/03/11 11:23:56;;;;;;;41.40;36.53;;;;;;;10.53;100.00;100020.16;5286703;28;20167;-83
2024/03/11 11:26:56;;;;;;;;;;;;;;;11.22;100.00;100034.28;5287384;28;20028;-82
2024/03/11 11:29:31;;;;;;;40.25;35.13;;;;;;;10.62;100.00;100028.91;5282096;28;19943;-83
2024/03/11 11:32:07;;;;;;;42.15;36.63;;;;;;;10.61;100.00;100035.13;5290784;28;20409;-83
2024/03/11 11:34:45;;;;;;;39.30;35.00;;;;;;;10.71;100.00;100035.84;5281453;28;20123;-83
2024/03/11 11:37:19;;;;;;;40.03;35.65;;;;;;;10.69;100.00;100053.53;5286678;28;20339;-83
2024/03/11 11:39:51;;;;;;;40.42;34.92;;;;;;;10.64;100.00;100050.50;5263821;28;20048;-82
2024/03/11 11:42:40;;;;;;;40.53;36.13;;;;;;;10.76;100.00;100028.38;5288690;28;20035;-82
2024/03/11 11:45:12;;;;;;;41.42;36.08;;;;;;;10.67;100.00;100050.22;5260528;28;20040;-83
2024/03/11 11:47:45;;;;;;;39.63;35.33;;;;;;;10.61;100.00;100042.97;5288770;28;20039;-83
2024/03/11 11:50:26;;;;;;;38.97;34.78;;;;;;;10.83;100.00;100060.84;5300193;28;20020;-83
2024/03/11 11:53:02;;;;;;;39.10;34.83;;;;;;;10.77;100.00;100055.41;5302580;28;20043;-83
2024/03/11 11:55:34;;;;;;;34.40;30.80;;;;;;;10.66;100.00;100059.06;5282407;28;20044;-83
2024/03/11 11:58:07;;;;;;;35.22;31.55;;;;;;;10.62;100.00;100062.97;5298091;28;20324;-83